createdAt,value
2019-02-16T00:01:23.382Z,1.10
2019-02-16T00:03:53.753Z,1.10
2019-02-16T00:06:24.122Z,1.10
2019-02-16T00:08:54.790Z,1.10
2019-02-16T00:11:25.146Z,1.10
2019-02-16T00:13:55.481Z,1.00
2019-02-16T00:16:25.949Z,1.00
2019-02-16T00:18:56.352Z,1.00
2019-02-16T00:21:26.781Z,1.00
2019-02-16T00:23:57.437Z,0.90
2019-02-16T00:26:27.773Z,0.90
2019-02-16T00:28:59.199Z,0.90
2019-02-16T00:31:29.533Z,0.90
2019-02-16T00:33:59.893Z,0.80
2019-02-16T00:36:30.225Z,0.80
2019-02-16T00:39:00.583Z,0.80
2019-02-16T00:41:30.985Z,0.80
2019-02-16T00:44:01.340Z,0.80
2019-02-16T00:46:31.681Z,0.80
2019-02-16T00:49:02.151Z,0.80
2019-02-16T00:51:32.478Z,0.70
2019-02-16T00:54:02.850Z,0.70
2019-02-16T00:56:33.181Z,0.70
2019-02-16T00:59:03.533Z,0.70
2019-02-16T01:01:33.897Z,0.70
2019-02-16T01:04:04.357Z,0.70
2019-02-16T01:06:34.685Z,0.70
2019-02-16T01:09:06.797Z,0.60
2019-02-16T01:11:37.305Z,0.60
2019-02-16T01:14:07.762Z,0.60
2019-02-16T01:16:38.093Z,0.60
2019-02-16T01:19:08.765Z,0.60
2019-02-16T01:21:39.102Z,0.50
2019-02-16T01:24:09.500Z,0.60
2019-02-16T01:26:39.821Z,0.50
2019-02-16T01:29:10.494Z,0.50
2019-02-16T01:31:40.829Z,0.50
2019-02-16T01:34:11.186Z,0.50
2019-02-16T01:36:41.509Z,0.50
2019-02-16T01:39:12.965Z,0.50
2019-02-16T01:41:43.289Z,0.40
2019-02-16T01:44:13.645Z,0.40
2019-02-16T01:46:44.008Z,0.40
2019-02-16T01:49:14.342Z,0.40
2019-02-16T01:51:44.698Z,0.40
2019-02-16T01:54:15.901Z,0.40
2019-02-16T01:56:46.265Z,0.30
2019-02-16T01:59:16.593Z,0.30
2019-02-16T02:01:47.026Z,0.30
2019-02-16T02:04:17.357Z,0.30
2019-02-16T02:06:47.722Z,0.30
2019-02-16T02:09:18.386Z,0.20
2019-02-16T02:11:48.713Z,0.20
2019-02-16T02:14:19.080Z,0.20
2019-02-16T02:16:49.461Z,0.20
2019-02-16T02:19:19.874Z,0.20
2019-02-16T02:21:50.201Z,0.20
2019-02-16T02:24:20.645Z,0.20
2019-02-16T02:26:52.053Z,0.10
2019-02-16T02:29:22.429Z,0.20
2019-02-16T02:31:52.770Z,0.10
2019-02-16T02:34:23.117Z,0.10
2019-02-16T02:36:53.445Z,0.10
2019-02-16T02:39:23.803Z,0.10
2019-02-16T02:41:54.161Z,0.10
2019-02-16T02:44:24.516Z,0.00
2019-02-16T02:46:54.869Z,0.00
2019-02-16T02:49:25.215Z,0.00
2019-02-16T02:51:55.542Z,0.00
2019-02-16T02:54:25.895Z,0.00
2019-02-16T02:56:56.265Z,0.00
2019-02-16T02:59:26.602Z,0.00
2019-02-16T03:01:56.970Z,0.00
2019-02-16T03:04:27.305Z,0.00
2019-02-16T03:06:57.673Z,-0.10
2019-02-16T03:09:28.025Z,-0.10
2019-02-16T03:11:58.388Z,-0.10
2019-02-16T03:14:28.754Z,-0.10
2019-02-16T03:16:59.092Z,-0.10
2019-02-16T03:19:29.616Z,-0.10
2019-02-16T03:22:02.757Z,-0.20
2019-02-16T03:24:43.842Z,-0.20
2019-02-16T03:27:42.050Z,-0.20
2019-02-16T03:30:57.672Z,-0.20
2019-02-16T03:33:58.589Z,-0.20
2019-02-16T03:36:51.226Z,-0.20
2019-02-16T03:39:42.862Z,-0.30
2019-02-16T03:42:13.225Z,-0.30
2019-02-16T03:44:43.569Z,-0.30
2019-02-16T03:47:13.942Z,-0.30
2019-02-16T03:49:44.284Z,-0.30
2019-02-16T03:52:14.651Z,-0.30
2019-02-16T03:54:45.015Z,-0.40
2019-02-16T03:57:15.381Z,-0.40
2019-02-16T03:59:45.732Z,-0.40
2019-02-16T04:02:16.125Z,-0.40
2019-02-16T04:04:46.497Z,-0.40
2019-02-16T04:07:16.879Z,-0.40
2019-02-16T04:09:47.225Z,-0.40
2019-02-16T04:12:17.592Z,-0.40
2019-02-16T04:14:48.082Z,-0.40
2019-02-16T04:17:18.412Z,-0.40
2019-02-16T04:19:48.824Z,-0.40
2019-02-16T04:22:24.714Z,-0.40
2019-02-16T04:24:52.597Z,-0.50
2019-02-16T04:27:24.012Z,-0.50
2019-02-16T04:29:54.383Z,-0.50
2019-02-16T04:32:24.713Z,-0.50
2019-02-16T04:34:55.091Z,-0.50
2019-02-16T04:37:25.425Z,-0.50
2019-02-16T04:39:55.801Z,-0.50
2019-02-16T04:42:26.375Z,-0.50
2019-02-16T04:44:56.729Z,-0.50
2019-02-16T04:47:27.086Z,-0.50
2019-02-16T04:49:57.418Z,-0.50
2019-02-16T04:52:34.320Z,-0.50
2019-02-16T04:54:59.830Z,-0.60
2019-02-16T04:57:30.417Z,-0.60
2019-02-16T05:00:00.753Z,-0.60
2019-02-16T05:02:31.136Z,-0.60
2019-02-16T05:05:01.477Z,-0.60
2019-02-16T05:07:31.860Z,-0.60
2019-02-16T05:10:02.206Z,-0.60
2019-02-16T05:12:32.570Z,-0.60
2019-02-16T05:15:02.926Z,-0.60
2019-02-16T05:17:33.386Z,-0.60
2019-02-16T05:20:04.677Z,-0.60
2019-02-16T05:22:43.855Z,-0.60
2019-02-16T05:25:07.010Z,-0.70
2019-02-16T05:27:37.341Z,-0.70
2019-02-16T05:30:07.784Z,-0.70
2019-02-16T05:32:38.117Z,-0.70
2019-02-16T05:35:08.513Z,-0.70
2019-02-16T05:37:38.846Z,-0.70
2019-02-16T05:40:09.420Z,-0.70
2019-02-16T05:42:39.762Z,-0.70
2019-02-16T05:45:10.244Z,-0.80
2019-02-16T05:47:40.569Z,-0.70
2019-02-16T05:50:10.941Z,-0.70
2019-02-16T05:52:41.274Z,-0.70
2019-02-16T05:55:11.646Z,-0.80
2019-02-16T05:57:42.002Z,-0.80
2019-02-16T06:00:13.548Z,-0.70
2019-02-16T06:02:43.886Z,-0.80
2019-02-16T06:05:15.335Z,-0.80
2019-02-16T06:07:45.673Z,-0.80
2019-02-16T06:10:16.137Z,-0.80
2019-02-16T06:12:46.469Z,-0.80
2019-02-16T06:15:16.857Z,-0.80
2019-02-16T06:17:47.197Z,-0.80
2019-02-16T06:20:17.565Z,-0.80
2019-02-16T06:22:48.149Z,-0.80
2019-02-16T06:25:18.604Z,-0.80
2019-02-16T06:27:48.924Z,-0.80
2019-02-16T06:30:19.378Z,-0.80
2019-02-16T06:32:49.719Z,-0.80
2019-02-16T06:35:33.877Z,-0.80
2019-02-16T06:38:04.217Z,-0.80
2019-02-16T06:40:34.584Z,-0.80
2019-02-16T06:43:04.919Z,-0.80
2019-02-16T06:45:35.293Z,-0.80
2019-02-16T06:48:05.630Z,-0.80
2019-02-16T06:50:37.193Z,-0.80
2019-02-16T06:53:13.277Z,-0.80
2019-02-16T06:56:01.524Z,-0.70
2019-02-16T06:58:31.934Z,-0.70
2019-02-16T07:01:02.325Z,-0.70
2019-02-16T07:03:32.662Z,-0.70
2019-02-16T07:06:03.141Z,-0.70
2019-02-16T07:08:33.481Z,-0.60
2019-02-16T07:11:03.929Z,-0.60
2019-02-16T07:13:34.277Z,-0.60
2019-02-16T07:16:22.478Z,-0.60
2019-02-16T07:18:57.929Z,-0.60
2019-02-16T07:21:28.317Z,-0.50
2019-02-16T07:23:58.658Z,-0.50
2019-02-16T07:26:29.117Z,-0.50
2019-02-16T07:28:59.462Z,-0.40
2019-02-16T07:31:29.830Z,-0.40
2019-02-16T07:34:00.169Z,-0.30
2019-02-16T07:36:30.560Z,-0.30
2019-02-16T07:39:00.941Z,-0.20
2019-02-16T07:41:32.397Z,-0.20
2019-02-16T07:44:27.486Z,-0.10
2019-02-16T07:47:06.975Z,-0.10
2019-02-16T07:49:56.575Z,0.00
2019-02-16T07:52:57.961Z,0.10
2019-02-16T07:55:38.844Z,0.20
2019-02-16T07:58:14.221Z,0.30
2019-02-16T08:01:02.119Z,0.40
2019-02-16T08:03:52.657Z,0.50
2019-02-16T08:06:47.973Z,0.60
2019-02-16T08:09:40.414Z,1.10
2019-02-16T08:12:29.708Z,1.20
2019-02-16T08:15:05.317Z,1.40
2019-02-16T08:18:02.454Z,1.50
2019-02-16T08:20:41.945Z,1.60
2019-02-16T08:23:21.738Z,1.90
2019-02-16T08:26:16.964Z,2.10
2019-02-16T08:28:59.257Z,3.10
2019-02-16T08:31:35.545Z,4.10
2019-02-16T08:34:37.218Z,5.60
2019-02-16T08:37:44.907Z,6.90
2019-02-16T08:40:27.493Z,11.60
2019-02-16T08:43:07.287Z,13.90
2019-02-16T08:45:50.161Z,13.50
2019-02-16T08:48:30.436Z,14.40
2019-02-16T08:51:11.905Z,14.60
2019-02-16T08:54:04.066Z,13.10
2019-02-16T08:56:56.401Z,14.50
2019-02-16T08:59:43.739Z,16.00
2019-02-16T09:02:30.517Z,16.10
2019-02-16T09:05:11.137Z,14.50
2019-02-16T09:08:06.397Z,14.40
2019-02-16T09:11:01.913Z,15.20
2019-02-16T09:13:48.209Z,16.30
2019-02-16T09:16:38.383Z,15.00
2019-02-16T09:19:26.049Z,14.70
2019-02-16T09:22:15.363Z,16.50
2019-02-16T09:24:54.537Z,17.20
2019-02-16T09:27:40.584Z,16.70
2019-02-16T09:30:28.469Z,16.80
2019-02-16T09:33:26.903Z,16.70
2019-02-16T09:36:15.463Z,16.40
2019-02-16T09:39:01.125Z,17.40
2019-02-16T09:41:49.436Z,16.30
2019-02-16T09:44:25.313Z,16.20
2019-02-16T09:47:33.638Z,17.10
2019-02-16T09:50:22.297Z,17.30
2019-02-16T09:53:13.265Z,17.60
2019-02-16T09:56:01.449Z,18.20
2019-02-16T09:58:49.785Z,18.50
2019-02-16T10:01:37.646Z,18.70
2019-02-16T10:04:21.893Z,18.50
2019-02-16T10:07:10.547Z,18.20
2019-02-16T10:10:15.214Z,18.10
2019-02-16T10:12:57.389Z,17.60
2019-02-16T10:15:49.066Z,17.40
2019-02-16T10:18:34.493Z,17.10
2019-02-16T10:21:23.814Z,16.90
2019-02-16T10:24:18.010Z,16.60
2019-02-16T10:27:01.549Z,16.50
2019-02-16T10:30:06.189Z,16.10
2019-02-16T10:32:49.109Z,15.90
2019-02-16T10:35:44.628Z,15.80
2019-02-16T10:38:36.679Z,15.50
2019-02-16T10:41:38.256Z,15.30
2019-02-16T10:44:30.293Z,15.20
2019-02-16T10:47:22.529Z,15.10
2019-02-16T10:50:03.137Z,15.00
2019-02-16T10:52:55.605Z,14.90
2019-02-16T10:55:41.365Z,14.80
2019-02-16T10:58:21.966Z,14.70
2019-02-16T11:01:09.864Z,14.60
2019-02-16T11:03:53.769Z,14.40
2019-02-16T11:06:52.129Z,14.40
2019-02-16T11:09:50.309Z,14.40
2019-02-16T11:12:43.753Z,14.40
2019-02-16T11:15:44.465Z,14.40
2019-02-16T11:18:33.742Z,14.30
2019-02-16T11:21:41.339Z,14.30
2019-02-16T11:24:18.117Z,14.30
2019-02-16T11:27:06.405Z,14.20
2019-02-16T11:29:48.708Z,14.30
2019-02-16T11:32:37.365Z,14.30
2019-02-16T11:35:19.790Z,14.30
2019-02-16T11:37:57.669Z,14.40
2019-02-16T11:40:53.001Z,14.40
2019-02-16T11:43:45.169Z,14.30
2019-02-16T11:46:46.785Z,14.40
2019-02-16T11:49:26.636Z,14.40
2019-02-16T11:52:24.937Z,14.40
2019-02-16T11:55:21.549Z,14.40
2019-02-16T11:58:09.494Z,14.40
2019-02-16T12:00:58.897Z,14.50
2019-02-16T12:03:44.257Z,14.40
2019-02-16T12:06:37.417Z,14.40
2019-02-16T12:09:28.234Z,14.40
2019-02-16T12:12:08.975Z,14.40
2019-02-16T12:14:59.451Z,14.50
2019-02-16T12:17:54.705Z,14.60
2019-02-16T12:20:36.849Z,14.60
2019-02-16T12:23:32.188Z,14.50
2019-02-16T12:26:17.345Z,14.60
2019-02-16T12:29:15.810Z,14.60
2019-02-16T12:32:11.759Z,14.60
2019-02-16T12:34:59.997Z,14.60
2019-02-16T12:37:48.449Z,14.60
2019-02-16T12:40:37.749Z,14.60
2019-02-16T12:43:27.021Z,14.60
2019-02-16T12:46:08.705Z,14.60
2019-02-16T12:48:49.553Z,14.60
2019-02-16T12:51:44.929Z,14.60
2019-02-16T12:54:24.393Z,14.60
2019-02-16T12:57:03.149Z,14.60
2019-02-16T13:00:04.525Z,14.60
2019-02-16T13:02:42.713Z,14.60
2019-02-16T13:05:28.169Z,14.60
2019-02-16T13:08:20.704Z,14.50
2019-02-16T13:11:12.857Z,14.50
2019-02-16T13:14:08.181Z,14.50
2019-02-16T13:16:56.234Z,14.50
2019-02-16T13:19:51.533Z,14.40
2019-02-16T13:22:30.237Z,14.40
2019-02-16T13:25:06.737Z,14.40
2019-02-16T13:27:56.009Z,14.50
2019-02-16T13:30:35.966Z,14.50
2019-02-16T13:33:29.289Z,14.50
2019-02-16T13:36:17.539Z,14.50
2019-02-16T13:38:56.262Z,14.50
2019-02-16T13:41:32.965Z,14.50
2019-02-16T13:44:22.263Z,14.50
2019-02-16T13:47:11.557Z,14.50
2019-02-16T13:50:07.401Z,14.50
2019-02-16T13:52:54.130Z,14.50
2019-02-16T13:55:43.205Z,14.50
2019-02-16T13:58:32.502Z,14.60
2019-02-16T14:01:07.469Z,14.50
2019-02-16T14:03:59.556Z,14.50
2019-02-16T14:06:48.837Z,14.50
2019-02-16T14:09:50.308Z,14.40
2019-02-16T14:12:38.484Z,14.40
2019-02-16T14:15:32.485Z,14.40
2019-02-16T14:18:02.905Z,14.30
2019-02-16T14:20:33.261Z,14.40
2019-02-16T14:23:03.593Z,14.50
2019-02-16T14:25:47.724Z,14.40
2019-02-16T14:28:19.037Z,14.50
2019-02-16T14:30:49.417Z,14.50
2019-02-16T14:33:19.749Z,14.40
2019-02-16T14:35:50.130Z,14.50
2019-02-16T14:38:39.393Z,14.50
2019-02-16T14:41:09.846Z,14.50
2019-02-16T14:43:40.170Z,14.40
2019-02-16T14:46:10.520Z,14.30
2019-02-16T14:48:40.882Z,14.30
2019-02-16T14:51:11.229Z,14.20
2019-02-16T14:53:41.592Z,14.10
2019-02-16T14:56:11.933Z,14.10
2019-02-16T14:58:42.297Z,14.00
2019-02-16T15:01:12.629Z,13.90
2019-02-16T15:03:43.017Z,13.80
2019-02-16T15:06:13.341Z,13.90
2019-02-16T15:08:43.721Z,13.80
2019-02-16T15:11:14.041Z,13.80
2019-02-16T15:13:45.094Z,13.80
2019-02-16T15:16:15.642Z,13.70
2019-02-16T15:18:46.039Z,13.70
2019-02-16T15:21:16.377Z,13.60
2019-02-16T15:23:46.737Z,13.60
2019-02-16T15:26:17.107Z,13.50
2019-02-16T15:28:47.433Z,13.50
2019-02-16T15:31:17.828Z,13.40
2019-02-16T15:33:48.138Z,13.30
2019-02-16T15:36:23.864Z,13.20
2019-02-16T15:38:50.445Z,13.20
2019-02-16T15:41:21.178Z,13.10
2019-02-16T15:43:51.527Z,13.10
2019-02-16T15:46:21.897Z,13.00
2019-02-16T15:48:52.225Z,12.90
2019-02-16T15:51:22.626Z,12.80
2019-02-16T15:53:52.970Z,12.80
2019-02-16T15:56:24.400Z,12.60
2019-02-16T15:58:54.854Z,12.50
2019-02-16T16:01:25.230Z,12.40
2019-02-16T16:03:56.005Z,12.30
2019-02-16T16:06:26.378Z,12.20
2019-02-16T16:09:14.281Z,12.00
2019-02-16T16:12:02.312Z,11.80
2019-02-16T16:14:49.633Z,11.60
2019-02-16T16:17:31.321Z,11.40
2019-02-16T16:20:20.621Z,11.20
2019-02-16T16:23:09.170Z,11.00
2019-02-16T16:26:04.776Z,10.90
2019-02-16T16:29:14.041Z,10.70
2019-02-16T16:31:55.709Z,10.50
2019-02-16T16:34:52.387Z,10.30
2019-02-16T16:37:43.661Z,10.10
2019-02-16T16:40:42.213Z,9.90
2019-02-16T16:43:29.358Z,9.80
2019-02-16T16:46:13.201Z,9.60
2019-02-16T16:49:12.549Z,9.50
2019-02-16T16:52:01.843Z,9.30
2019-02-16T16:54:41.790Z,9.20
2019-02-16T16:57:22.685Z,9.00
2019-02-16T17:00:10.626Z,8.90
2019-02-16T17:03:03.188Z,8.70
2019-02-16T17:05:51.433Z,8.60
2019-02-16T17:08:46.665Z,8.50
2019-02-16T17:11:32.328Z,8.30
2019-02-16T17:14:13.405Z,8.20
2019-02-16T17:17:01.689Z,8.10
2019-02-16T17:19:38.826Z,8.00
2019-02-16T17:22:32.063Z,7.90
2019-02-16T17:25:27.582Z,7.80
2019-02-16T17:28:32.185Z,7.60
2019-02-16T17:31:27.485Z,7.50
2019-02-16T17:34:26.092Z,7.40
2019-02-16T17:37:24.204Z,7.30
2019-02-16T17:40:13.477Z,7.20
2019-02-16T17:42:58.025Z,7.00
2019-02-16T17:45:46.317Z,6.90
2019-02-16T17:48:35.601Z,6.80
2019-02-16T17:51:24.876Z,6.70
2019-02-16T17:54:14.161Z,6.70
2019-02-16T17:56:56.369Z,6.50
2019-02-16T17:59:36.753Z,6.40
2019-02-16T18:02:34.928Z,6.40
2019-02-16T18:05:27.067Z,6.30
2019-02-16T18:08:19.437Z,6.20
2019-02-16T18:11:11.733Z,6.10
2019-02-16T18:13:55.664Z,6.00
2019-02-16T18:16:57.141Z,5.90
2019-02-16T18:19:37.527Z,5.90
2019-02-16T18:22:24.049Z,5.80
2019-02-16T18:25:04.457Z,5.70
2019-02-16T18:27:54.481Z,5.60
2019-02-16T18:30:43.072Z,5.50
2019-02-16T18:33:31.033Z,5.50
2019-02-16T18:36:08.113Z,5.50
2019-02-16T18:38:57.882Z,5.30
2019-02-16T18:41:50.281Z,5.30
2019-02-16T18:44:39.580Z,5.20
2019-02-16T18:47:28.373Z,5.20
2019-02-16T18:50:17.795Z,5.10
2019-02-16T18:53:09.817Z,5.00
2019-02-16T18:55:59.139Z,5.00
2019-02-16T18:58:51.185Z,4.90
2019-02-16T19:01:58.726Z,4.80
2019-02-16T19:04:48.042Z,4.80
2019-02-16T19:07:49.313Z,4.70
2019-02-16T19:10:44.729Z,4.60
2019-02-16T19:13:46.090Z,4.50
2019-02-16T19:16:35.353Z,4.50
2019-02-16T19:19:35.697Z,4.40
2019-02-16T19:22:27.811Z,4.30
2019-02-16T19:25:07.085Z,4.30
2019-02-16T19:28:02.549Z,4.20
2019-02-16T19:30:46.809Z,4.20
2019-02-16T19:33:47.969Z,4.10
2019-02-16T19:36:29.509Z,4.10
2019-02-16T19:39:17.700Z,4.00
2019-02-16T19:41:59.884Z,3.90
2019-02-16T19:44:55.207Z,3.90
2019-02-16T19:47:44.342Z,3.80
2019-02-16T19:50:36.354Z,3.80
2019-02-16T19:53:24.720Z,3.70
2019-02-16T19:56:26.953Z,3.70
2019-02-16T19:59:16.383Z,3.70
2019-02-16T20:02:08.149Z,3.60
2019-02-16T20:04:55.073Z,3.50
2019-02-16T20:07:59.780Z,3.50
2019-02-16T20:11:07.289Z,3.50
2019-02-16T20:14:02.543Z,3.40
2019-02-16T20:16:51.812Z,3.30
2019-02-16T20:19:52.973Z,3.30
2019-02-16T20:22:57.977Z,3.20
2019-02-16T20:25:53.661Z,3.20
2019-02-16T20:28:46.253Z,3.10
2019-02-16T20:31:29.537Z,3.10
2019-02-16T20:34:08.421Z,3.10
2019-02-16T20:36:50.163Z,3.00
2019-02-16T20:39:39.785Z,3.00
2019-02-16T20:42:16.409Z,3.00
2019-02-16T20:45:00.321Z,2.90
2019-02-16T20:47:48.864Z,2.90
2019-02-16T20:50:45.787Z,2.90
2019-02-16T20:53:34.033Z,2.80
2019-02-16T20:56:18.684Z,2.80
2019-02-16T20:59:06.539Z,2.80
2019-02-16T21:02:01.661Z,2.70
2019-02-16T21:04:52.616Z,2.70
2019-02-16T21:07:41.917Z,2.70
2019-02-16T21:10:21.429Z,2.60
2019-02-16T21:13:16.577Z,2.50
2019-02-16T21:16:05.594Z,2.50
2019-02-16T21:18:50.104Z,2.50
2019-02-16T21:21:38.264Z,2.50
2019-02-16T21:24:15.637Z,2.40
2019-02-16T21:27:19.394Z,2.40
2019-02-16T21:30:00.605Z,2.40
2019-02-16T21:32:58.788Z,2.30
2019-02-16T21:35:48.117Z,2.30
2019-02-16T21:38:27.876Z,2.30
2019-02-16T21:41:13.785Z,2.30
2019-02-16T21:44:06.108Z,2.20
2019-02-16T21:46:54.686Z,2.20
2019-02-16T21:49:47.173Z,2.20
2019-02-16T21:52:45.501Z,2.20
2019-02-16T21:55:40.795Z,2.10
2019-02-16T21:58:24.873Z,2.10
2019-02-16T22:01:20.262Z,2.10
2019-02-16T22:03:56.566Z,2.10
2019-02-16T22:06:51.940Z,2.10
2019-02-16T22:09:45.240Z,2.00
2019-02-16T22:12:34.158Z,2.00
2019-02-16T22:15:05.169Z,2.00
2019-02-16T22:17:35.505Z,2.00
2019-02-16T22:20:06.236Z,1.90
2019-02-16T22:22:36.604Z,1.90
2019-02-16T22:25:07.137Z,1.90
2019-02-16T22:27:37.473Z,1.90
2019-02-16T22:30:08.745Z,1.80
2019-02-16T22:32:39.069Z,1.80
2019-02-16T22:35:09.446Z,1.80
2019-02-16T22:37:39.781Z,1.80
2019-02-16T22:40:10.637Z,1.80
2019-02-16T22:42:41.357Z,1.70
2019-02-16T22:45:11.941Z,1.70
2019-02-16T22:47:42.636Z,1.70
2019-02-16T22:50:13.965Z,1.60
2019-02-16T22:52:44.298Z,1.60
2019-02-16T22:55:14.625Z,1.60
2019-02-16T22:57:44.976Z,1.60
2019-02-16T23:00:27.727Z,1.60
2019-02-16T23:02:59.669Z,1.60
2019-02-16T23:05:30.065Z,1.50
2019-02-16T23:08:00.394Z,1.50
2019-02-16T23:10:30.745Z,1.50
2019-02-16T23:13:01.101Z,1.50
2019-02-16T23:15:31.433Z,1.50
2019-02-16T23:18:01.843Z,1.40
2019-02-16T23:20:32.165Z,1.40
2019-02-16T23:23:02.573Z,1.40
2019-02-16T23:25:32.897Z,1.30
2019-02-16T23:28:03.281Z,1.40
2019-02-16T23:30:33.693Z,1.40
2019-02-16T23:33:04.465Z,1.30
2019-02-16T23:35:34.794Z,1.30
2019-02-16T23:38:05.261Z,1.30
2019-02-16T23:40:35.601Z,1.30
2019-02-16T23:43:06.061Z,1.40
2019-02-16T23:45:36.471Z,1.30
2019-02-16T23:48:08.242Z,1.30
2019-02-16T23:50:38.573Z,1.20
2019-02-16T23:53:09.029Z,1.30
2019-02-16T23:55:39.372Z,1.20
2019-02-16T23:58:09.723Z,1.20
